sensor_id;sensor_type;location;lat;lon;timestamp;pressure;altitude;pressure_sealevel;temperature;humidity
28448;BME280;15675;52.870;-1.416;2023-05-17T00:00:00;102203.28;;;10.58;100.00
28448;BME280;15675;52.870;-1.416;2023-05-17T00:02:26;102204.88;;;10.53;100.00
28448;BME280;15675;52.870;-1.416;2023-05-17T00:04:52;102212.88;;;10.61;100.00
28448;BME280;15675;52.870;-1.416;2023-05-17T00:07:18;102203.25;;;10.57;100.00
28448;BME280;15675;52.870;-1.416;2023-05-17T00:09:44;102205.38;;;10.71;100.00
28448;BME280;15675;52.870;-1.416;2023-05-17T00:12:10;102200.81;;;10.63;100.00
28448;BME280;15675;52.870;-1.416;2023-05-17T00:14:36;102196.72;;;10.39;100.00
28448;BME280;15675;52.870;-1.416;2023-05-17T00:17:01;102198.72;;;10.49;100.00
28448;BME280;15675;52.870;-1.416;2023-05-17T00:19:27;102201.88;;;10.38;100.00
28448;BME280;15675;52.870;-1.416;2023-05-17T00:21:53;102202.59;;;10.33;100.00
28448;BME280;15675;52.870;-1.416;2023-05-17T00:24:19;102200.06;;;10.35;100.00
28448;BME280;15675;52.870;-1.416;2023-05-17T00:26:45;102197.94;;;10.23;100.00
28448;BME280;15675;52.870;-1.416;2023-05-17T00:29:11;102194.13;;;10.10;100.00
28448;BME280;15675;52.870;-1.416;2023-05-17T00:31:37;102198.19;;;10.00;100.00
28448;BME280;15675;52.870;-1.416;2023-05-17T00:34:03;102195.19;;;9.87;100.00
28448;BME280;15675;52.870;-1.416;2023-05-17T00:36:29;102199.84;;;9.70;100.00
28448;BME280;15675;52.870;-1.416;2023-05-17T00:38:55;102193.38;;;9.84;100.00
28448;BME280;15675;52.870;-1.416;2023-05-17T00:41:21;102184.75;;;9.85;100.00
28448;BME280;15675;52.870;-1.416;2023-05-17T00:43:47;102189.88;;;9.82;100.00
28448;BME280;15675;52.870;-1.416;2023-05-17T00:46:13;102196.00;;;9.85;100.00
28448;BME280;15675;52.870;-1.416;2023-05-17T00:48:41;102199.38;;;9.83;100.00
28448;BME280;15675;52.870;-1.416;2023-05-17T00:51:07;102194.09;;;9.80;100.00
28448;BME280;15675;52.870;-1.416;2023-05-17T00:53:33;102198.06;;;9.97;100.00
28448;BME280;15675;52.870;-1.416;2023-05-17T00:56:02;102197.00;;;9.62;100.00
28448;BME280;15675;52.870;-1.416;2023-05-17T00:58:28;102200.19;;;9.53;100.00
28448;BME280;15675;52.870;-1.416;2023-05-17T01:00:55;102193.63;;;9.64;100.00
28448;BME280;15675;52.870;-1.416;2023-05-17T01:03:20;102202.28;;;9.63;100.00
28448;BME280;15675;52.870;-1.416;2023-05-17T01:05:48;102198.72;;;9.61;100.00
28448;BME280;15675;52.870;-1.416;2023-05-17T01:08:15;102206.94;;;9.75;100.00
28448;BME280;15675;52.870;-1.416;2023-05-17T01:10:58;102198.31;;;10.05;100.00
28448;BME280;15675;52.870;-1.416;2023-05-17T01:13:35;102202.97;;;10.17;100.00
28448;BME280;15675;52.870;-1.416;2023-05-17T01:16:15;102192.56;;;10.15;100.00
28448;BME280;15675;52.870;-1.416;2023-05-17T01:18:47;102197.03;;;10.21;100.00
28448;BME280;15675;52.870;-1.416;2023-05-17T01:21:45;102200.16;;;10.38;100.00
28448;BME280;15675;52.870;-1.416;2023-05-17T01:24:27;102204.00;;;10.22;100.00
28448;BME280;15675;52.870;-1.416;2023-05-17T01:26:55;102199.63;;;9.91;100.00
28448;BME280;15675;52.870;-1.416;2023-05-17T01:29:25;102194.19;;;10.12;100.00
28448;BME280;15675;52.870;-1.416;2023-05-17T01:31:53;102193.88;;;10.01;100.00
28448;BME280;15675;52.870;-1.416;2023-05-17T01:34:25;102196.09;;;9.89;100.00
28448;BME280;15675;52.870;-1.416;2023-05-17T01:36:51;102193.69;;;9.95;100.00
28448;BME280;15675;52.870;-1.416;2023-05-17T01:39:17;102203.41;;;9.73;100.00
28448;BME280;15675;52.870;-1.416;2023-05-17T01:41:46;102205.84;;;9.68;100.00
28448;BME280;15675;52.870;-1.416;2023-05-17T01:44:37;102218.09;;;9.18;100.00
28448;BME280;15675;52.870;-1.416;2023-05-17T01:49:58;102215.88;;;9.30;100.00
28448;BME280;15675;52.870;-1.416;2023-05-17T01:52:33;102212.34;;;9.27;100.00
28448;BME280;15675;52.870;-1.416;2023-05-17T01:55:08;102203.66;;;9.52;100.00
28448;BME280;15675;52.870;-1.416;2023-05-17T01:57:35;102202.19;;;9.35;100.00
28448;BME280;15675;52.870;-1.416;2023-05-17T02:00:07;102215.28;;;9.12;100.00
28448;BME280;15675;52.870;-1.416;2023-05-17T02:02:34;102210.94;;;8.85;100.00
28448;BME280;15675;52.870;-1.416;2023-05-17T02:05:00;102220.25;;;8.80;100.00
28448;BME280;15675;52.870;-1.416;2023-05-17T02:07:26;102218.19;;;8.70;100.00
28448;BME280;15675;52.870;-1.416;2023-05-17T02:09:52;102223.53;;;9.00;100.00
28448;BME280;15675;52.870;-1.416;2023-05-17T02:12:18;102220.97;;;9.02;100.00
28448;BME280;15675;52.870;-1.416;2023-05-17T02:14:44;102224.34;;;8.99;100.00
28448;BME280;15675;52.870;-1.416;2023-05-17T02:17:10;102222.09;;;9.08;100.00
28448;BME280;15675;52.870;-1.416;2023-05-17T02:19:36;102221.31;;;9.11;100.00
28448;BME280;15675;52.870;-1.416;2023-05-17T02:22:02;102228.41;;;8.91;100.00
28448;BME280;15675;52.870;-1.416;2023-05-17T02:24:28;102226.69;;;8.91;100.00
28448;BME280;15675;52.870;-1.416;2023-05-17T02:26:54;102232.53;;;9.11;100.00
28448;BME280;15675;52.870;-1.416;2023-05-17T02:29:20;102233.63;;;8.92;100.00
28448;BME280;15675;52.870;-1.416;2023-05-17T02:31:46;102219.84;;;8.93;100.00
28448;BME280;15675;52.870;-1.416;2023-05-17T02:34:12;102224.28;;;8.97;100.00
28448;BME280;15675;52.870;-1.416;2023-05-17T02:36:38;102217.91;;;8.88;100.00
28448;BME280;15675;52.870;-1.416;2023-05-17T02:39:05;102220.94;;;9.00;100.00
28448;BME280;15675;52.870;-1.416;2023-05-17T02:41:31;102219.44;;;8.81;100.00
28448;BME280;15675;52.870;-1.416;2023-05-17T02:43:57;102225.13;;;8.71;100.00
28448;BME280;15675;52.870;-1.416;2023-05-17T02:46:23;102227.47;;;8.64;100.00
28448;BME280;15675;52.870;-1.416;2023-05-17T02:48:49;102235.47;;;8.71;100.00
28448;BME280;15675;52.870;-1.416;2023-05-17T02:51:14;102231.47;;;8.80;100.00
28448;BME280;15675;52.870;-1.416;2023-05-17T02:53:40;102237.78;;;8.63;100.00
28448;BME280;15675;52.870;-1.416;2023-05-17T02:56:06;102232.44;;;8.83;100.00
28448;BME280;15675;52.870;-1.416;2023-05-17T02:58:32;102237.38;;;8.76;100.00
28448;BME280;15675;52.870;-1.416;2023-05-17T03:00:58;102246.03;;;8.53;100.00
28448;BME280;15675;52.870;-1.416;2023-05-17T03:03:24;102244.63;;;8.61;100.00
28448;BME280;15675;52.870;-1.416;2023-05-17T03:05:50;102247.25;;;8.62;100.00
28448;BME280;15675;52.870;-1.416;2023-05-17T03:08:16;102248.78;;;8.57;100.00
28448;BME280;15675;52.870;-1.416;2023-05-17T03:10:42;102247.56;;;8.72;100.00
28448;BME280;15675;52.870;-1.416;2023-05-17T03:13:08;102253.63;;;8.96;100.00
28448;BME280;15675;52.870;-1.416;2023-05-17T03:15:34;102259.50;;;8.67;100.00
28448;BME280;15675;52.870;-1.416;2023-05-17T03:18:00;102251.63;;;8.41;100.00
28448;BME280;15675;52.870;-1.416;2023-05-17T03:20:26;102249.28;;;8.47;100.00
28448;BME280;15675;52.870;-1.416;2023-05-17T03:22:53;102250.06;;;8.69;100.00
28448;BME280;15675;52.870;-1.416;2023-05-17T03:25:19;102250.16;;;8.72;100.00
28448;BME280;15675;52.870;-1.416;2023-05-17T03:27:45;102254.91;;;8.84;100.00
28448;BME280;15675;52.870;-1.416;2023-05-17T03:30:11;102251.34;;;9.06;100.00
28448;BME280;15675;52.870;-1.416;2023-05-17T03:32:38;102257.03;;;8.95;100.00
28448;BME280;15675;52.870;-1.416;2023-05-17T03:35:05;102249.56;;;9.30;100.00
28448;BME280;15675;52.870;-1.416;2023-05-17T03:37:31;102258.81;;;8.96;100.00
28448;BME280;15675;52.870;-1.416;2023-05-17T03:39:57;102250.50;;;8.57;100.00
28448;BME280;15675;52.870;-1.416;2023-05-17T03:42:23;102246.19;;;8.57;100.00
28448;BME280;15675;52.870;-1.416;2023-05-17T03:44:49;102253.34;;;8.64;100.00
28448;BME280;15675;52.870;-1.416;2023-05-17T03:47:15;102253.38;;;8.42;100.00
28448;BME280;15675;52.870;-1.416;2023-05-17T03:49:41;102255.16;;;8.20;100.00
28448;BME280;15675;52.870;-1.416;2023-05-17T03:52:07;102245.22;;;8.31;100.00
28448;BME280;15675;52.870;-1.416;2023-05-17T03:54:33;102249.59;;;8.56;100.00
28448;BME280;15675;52.870;-1.416;2023-05-17T03:56:59;102245.38;;;8.58;100.00
28448;BME280;15675;52.870;-1.416;2023-05-17T03:59:25;102251.56;;;8.88;100.00
28448;BME280;15675;52.870;-1.416;2023-05-17T04:01:51;102244.00;;;8.68;100.00
28448;BME280;15675;52.870;-1.416;2023-05-17T04:04:17;102252.44;;;8.87;100.00
28448;BME280;15675;52.870;-1.416;2023-05-17T04:06:43;102246.72;;;8.97;100.00
28448;BME280;15675;52.870;-1.416;2023-05-17T04:09:08;102248.59;;;8.75;100.00
28448;BME280;15675;52.870;-1.416;2023-05-17T04:11:37;102242.84;;;8.84;100.00
28448;BME280;15675;52.870;-1.416;2023-05-17T04:14:04;102249.41;;;8.74;100.00
28448;BME280;15675;52.870;-1.416;2023-05-17T04:16:30;102251.13;;;8.74;100.00
28448;BME280;15675;52.870;-1.416;2023-05-17T04:18:58;102254.91;;;8.37;100.00
28448;BME280;15675;52.870;-1.416;2023-05-17T04:21:25;102258.16;;;8.54;100.00
28448;BME280;15675;52.870;-1.416;2023-05-17T04:23:51;102258.44;;;8.61;100.00
28448;BME280;15675;52.870;-1.416;2023-05-17T04:26:17;102263.97;;;8.71;100.00
28448;BME280;15675;52.870;-1.416;2023-05-17T04:28:44;102274.47;;;8.75;100.00
28448;BME280;15675;52.870;-1.416;2023-05-17T04:31:10;102270.88;;;8.72;100.00
28448;BME280;15675;52.870;-1.416;2023-05-17T04:33:36;102272.03;;;8.56;100.00
28448;BME280;15675;52.870;-1.416;2023-05-17T04:36:02;102262.34;;;8.50;100.00
28448;BME280;15675;52.870;-1.416;2023-05-17T04:38:28;102265.31;;;8.61;100.00
28448;BME280;15675;52.870;-1.416;2023-05-17T04:41:01;102269.34;;;8.77;100.00
28448;BME280;15675;52.870;-1.416;2023-05-17T04:43:30;102269.06;;;8.69;100.00
28448;BME280;15675;52.870;-1.416;2023-05-17T04:45:57;102279.75;;;9.03;100.00
28448;BME280;15675;52.870;-1.416;2023-05-17T04:48:23;102275.63;;;9.08;100.00
28448;BME280;15675;52.870;-1.416;2023-05-17T04:50:51;102278.97;;;9.05;100.00
28448;BME280;15675;52.870;-1.416;2023-05-17T04:53:17;102275.09;;;9.44;100.00
28448;BME280;15675;52.870;-1.416;2023-05-17T04:55:43;102277.53;;;9.39;100.00
28448;BME280;15675;52.870;-1.416;2023-05-17T04:58:09;102282.63;;;9.63;100.00
28448;BME280;15675;52.870;-1.416;2023-05-17T05:00:35;102282.56;;;9.62;100.00
28448;BME280;15675;52.870;-1.416;2023-05-17T05:03:01;102281.41;;;9.26;100.00
28448;BME280;15675;52.870;-1.416;2023-05-17T05:05:29;102287.38;;;9.24;100.00
28448;BME280;15675;52.870;-1.416;2023-05-17T05:07:56;102293.19;;;9.17;100.00
28448;BME280;15675;52.870;-1.416;2023-05-17T05:10:22;102292.88;;;9.09;100.00
28448;BME280;15675;52.870;-1.416;2023-05-17T05:12:48;102297.94;;;9.30;100.00
28448;BME280;15675;52.870;-1.416;2023-05-17T05:15:14;102297.25;;;9.36;100.00
28448;BME280;15675;52.870;-1.416;2023-05-17T05:17:40;102289.28;;;9.29;100.00
28448;BME280;15675;52.870;-1.416;2023-05-17T05:20:07;102298.56;;;9.23;100.00
28448;BME280;15675;52.870;-1.416;2023-05-17T05:22:34;102297.69;;;9.48;100.00
28448;BME280;15675;52.870;-1.416;2023-05-17T05:25:00;102307.16;;;9.47;100.00
28448;BME280;15675;52.870;-1.416;2023-05-17T05:27:26;102305.63;;;9.80;100.00
28448;BME280;15675;52.870;-1.416;2023-05-17T05:29:53;102302.75;;;10.27;100.00
28448;BME280;15675;52.870;-1.416;2023-05-17T05:32:20;102306.63;;;10.70;100.00
28448;BME280;15675;52.870;-1.416;2023-05-17T05:34:46;102307.47;;;11.01;100.00
28448;BME280;15675;52.870;-1.416;2023-05-17T05:37:12;102303.25;;;11.04;100.00
28448;BME280;15675;52.870;-1.416;2023-05-17T05:39:37;102301.03;;;11.20;100.00
28448;BME280;15675;52.870;-1.416;2023-05-17T05:42:04;102308.09;;;11.26;100.00
28448;BME280;15675;52.870;-1.416;2023-05-17T05:44:30;102308.53;;;11.43;100.00
28448;BME280;15675;52.870;-1.416;2023-05-17T05:46:56;102303.41;;;11.46;100.00
28448;BME280;15675;52.870;-1.416;2023-05-17T05:49:22;102295.31;;;11.00;100.00
28448;BME280;15675;52.870;-1.416;2023-05-17T05:51:48;102309.09;;;11.29;100.00
28448;BME280;15675;52.870;-1.416;2023-05-17T05:54:14;102311.25;;;11.12;100.00
28448;BME280;15675;52.870;-1.416;2023-05-17T05:56:40;102313.69;;;11.39;100.00
28448;BME280;15675;52.870;-1.416;2023-05-17T05:59:06;102309.34;;;11.75;100.00
28448;BME280;15675;52.870;-1.416;2023-05-17T06:01:32;102310.38;;;11.47;100.00
28448;BME280;15675;52.870;-1.416;2023-05-17T06:03:58;102314.59;;;11.42;100.00
28448;BME280;15675;52.870;-1.416;2023-05-17T06:06:24;102317.44;;;11.17;100.00
28448;BME280;15675;52.870;-1.416;2023-05-17T06:08:50;102330.69;;;11.60;100.00
28448;BME280;15675;52.870;-1.416;2023-05-17T06:11:17;102330.13;;;11.73;100.00
28448;BME280;15675;52.870;-1.416;2023-05-17T06:13:45;102330.13;;;11.73;100.00
28448;BME280;15675;52.870;-1.416;2023-05-17T06:16:12;102336.63;;;11.56;100.00
28448;BME280;15675;52.870;-1.416;2023-05-17T06:18:38;102330.25;;;11.43;100.00
28448;BME280;15675;52.870;-1.416;2023-05-17T06:21:04;102340.34;;;11.32;100.00
28448;BME280;15675;52.870;-1.416;2023-05-17T06:23:30;102336.75;;;11.27;100.00
28448;BME280;15675;52.870;-1.416;2023-05-17T06:25:56;102343.97;;;11.72;100.00
28448;BME280;15675;52.870;-1.416;2023-05-17T06:28:22;102346.06;;;11.52;100.00
28448;BME280;15675;52.870;-1.416;2023-05-17T06:30:48;102353.53;;;11.73;100.00
28448;BME280;15675;52.870;-1.416;2023-05-17T06:33:14;102352.50;;;11.67;100.00
28448;BME280;15675;52.870;-1.416;2023-05-17T06:35:40;102352.84;;;11.81;100.00
28448;BME280;15675;52.870;-1.416;2023-05-17T06:38:06;102351.97;;;11.80;100.00
28448;BME280;15675;52.870;-1.416;2023-05-17T06:40:32;102350.91;;;11.72;100.00
28448;BME280;15675;52.870;-1.416;2023-05-17T06:42:58;102354.25;;;11.68;100.00
28448;BME280;15675;52.870;-1.416;2023-05-17T06:45:24;102364.81;;;11.74;100.00
28448;BME280;15675;52.870;-1.416;2023-05-17T06:47:52;102361.72;;;12.25;100.00
28448;BME280;15675;52.870;-1.416;2023-05-17T06:50:18;102370.78;;;12.03;100.00
28448;BME280;15675;52.870;-1.416;2023-05-17T06:52:43;102364.38;;;12.27;100.00
28448;BME280;15675;52.870;-1.416;2023-05-17T06:55:09;102361.94;;;11.97;100.00
28448;BME280;15675;52.870;-1.416;2023-05-17T06:57:36;102364.63;;;12.01;100.00
28448;BME280;15675;52.870;-1.416;2023-05-17T07:00:02;102380.56;;;11.79;100.00
28448;BME280;15675;52.870;-1.416;2023-05-17T07:02:31;102376.03;;;12.06;100.00
28448;BME280;15675;52.870;-1.416;2023-05-17T07:04:57;102366.25;;;11.96;100.00
28448;BME280;15675;52.870;-1.416;2023-05-17T07:07:23;102365.66;;;12.46;100.00
28448;BME280;15675;52.870;-1.416;2023-05-17T07:09:49;102370.81;;;12.43;100.00
28448;BME280;15675;52.870;-1.416;2023-05-17T07:12:15;102372.72;;;12.52;100.00
28448;BME280;15675;52.870;-1.416;2023-05-17T07:14:41;102368.94;;;12.37;100.00
28448;BME280;15675;52.870;-1.416;2023-05-17T07:17:09;102380.25;;;12.39;100.00
28448;BME280;15675;52.870;-1.416;2023-05-17T07:19:35;102382.47;;;13.03;100.00
28448;BME280;15675;52.870;-1.416;2023-05-17T07:22:01;102372.47;;;13.25;100.00
28448;BME280;15675;52.870;-1.416;2023-05-17T07:24:27;102381.63;;;13.49;100.00
28448;BME280;15675;52.870;-1.416;2023-05-17T07:26:53;102375.63;;;13.54;100.00
28448;BME280;15675;52.870;-1.416;2023-05-17T07:29:19;102376.75;;;13.69;100.00
28448;BME280;15675;52.870;-1.416;2023-05-17T07:31:45;102375.13;;;13.75;100.00
28448;BME280;15675;52.870;-1.416;2023-05-17T07:34:12;102378.69;;;13.82;100.00
28448;BME280;15675;52.870;-1.416;2023-05-17T07:36:38;102378.63;;;13.77;100.00
28448;BME280;15675;52.870;-1.416;2023-05-17T07:39:04;102371.31;;;13.56;100.00
28448;BME280;15675;52.870;-1.416;2023-05-17T07:41:30;102377.41;;;13.55;100.00
28448;BME280;15675;52.870;-1.416;2023-05-17T07:43:58;102379.44;;;13.73;100.00
28448;BME280;15675;52.870;-1.416;2023-05-17T07:46:24;102376.72;;;13.67;100.00
28448;BME280;15675;52.870;-1.416;2023-05-17T07:48:50;102373.22;;;13.67;100.00
28448;BME280;15675;52.870;-1.416;2023-05-17T07:51:16;102382.50;;;14.01;100.00
28448;BME280;15675;52.870;-1.416;2023-05-17T07:53:42;102393.06;;;14.09;100.00
28448;BME280;15675;52.870;-1.416;2023-05-17T07:56:08;102390.16;;;13.90;100.00
28448;BME280;15675;52.870;-1.416;2023-05-17T07:58:34;102391.28;;;14.06;100.00
28448;BME280;15675;52.870;-1.416;2023-05-17T08:01:00;102393.31;;;14.26;100.00
28448;BME280;15675;52.870;-1.416;2023-05-17T08:03:27;102390.88;;;14.37;100.00
28448;BME280;15675;52.870;-1.416;2023-05-17T08:05:53;102381.78;;;14.70;100.00
28448;BME280;15675;52.870;-1.416;2023-05-17T08:08:19;102387.63;;;14.56;99.03
28448;BME280;15675;52.870;-1.416;2023-05-17T08:10:45;102387.72;;;14.59;96.10
28448;BME280;15675;52.870;-1.416;2023-05-17T08:13:11;102383.72;;;14.88;97.38
28448;BME280;15675;52.870;-1.416;2023-05-17T08:15:37;102394.44;;;14.45;95.19
28448;BME280;15675;52.870;-1.416;2023-05-17T08:18:03;102385.72;;;14.41;96.33
28448;BME280;15675;52.870;-1.416;2023-05-17T08:20:29;102385.91;;;14.57;96.54
28448;BME280;15675;52.870;-1.416;2023-05-17T08:22:55;102380.03;;;14.72;93.14
28448;BME280;15675;52.870;-1.416;2023-05-17T08:25:22;102374.25;;;14.33;93.28
28448;BME280;15675;52.870;-1.416;2023-05-17T08:27:48;102387.22;;;14.25;95.40
28448;BME280;15675;52.870;-1.416;2023-05-17T08:30:14;102384.09;;;14.49;95.48
28448;BME280;15675;52.870;-1.416;2023-05-17T08:32:40;102383.34;;;14.60;93.61
28448;BME280;15675;52.870;-1.416;2023-05-17T08:35:06;102375.44;;;15.26;91.66
28448;BME280;15675;52.870;-1.416;2023-05-17T08:37:32;102383.31;;;14.57;88.52
28448;BME280;15675;52.870;-1.416;2023-05-17T08:39:58;102384.38;;;14.68;90.69
28448;BME280;15675;52.870;-1.416;2023-05-17T08:42:24;102385.72;;;14.43;92.05
28448;BME280;15675;52.870;-1.416;2023-05-17T08:44:52;102383.31;;;14.57;91.04
28448;BME280;15675;52.870;-1.416;2023-05-17T08:47:19;102383.03;;;14.37;91.90
28448;BME280;15675;52.870;-1.416;2023-05-17T08:50:02;102389.91;;;14.31;92.49
28448;BME280;15675;52.870;-1.416;2023-05-17T08:52:30;102395.94;;;14.26;90.49
28448;BME280;15675;52.870;-1.416;2023-05-17T08:54:57;102390.69;;;14.86;90.29
28448;BME280;15675;52.870;-1.416;2023-05-17T08:57:27;102385.91;;;15.26;87.75
28448;BME280;15675;52.870;-1.416;2023-05-17T08:59:55;102391.22;;;15.33;84.64
28448;BME280;15675;52.870;-1.416;2023-05-17T09:02:23;102396.69;;;15.57;82.78
28448;BME280;15675;52.870;-1.416;2023-05-17T09:04:49;102396.06;;;15.84;82.06
28448;BME280;15675;52.870;-1.416;2023-05-17T09:07:21;102394.09;;;15.61;78.64
28448;BME280;15675;52.870;-1.416;2023-05-17T09:09:50;102384.41;;;15.52;79.16
28448;BME280;15675;52.870;-1.416;2023-05-17T09:12:18;102401.22;;;15.76;80.54
28448;BME280;15675;52.870;-1.416;2023-05-17T09:14:44;102395.06;;;14.87;82.60
28448;BME280;15675;52.870;-1.416;2023-05-17T09:17:13;102394.94;;;14.79;84.17
28448;BME280;15675;52.870;-1.416;2023-05-17T09:19:43;102397.59;;;14.83;83.80
28448;BME280;15675;52.870;-1.416;2023-05-17T09:22:13;102396.13;;;15.04;83.72
28448;BME280;15675;52.870;-1.416;2023-05-17T09:24:40;102392.59;;;15.02;83.29
28448;BME280;15675;52.870;-1.416;2023-05-17T09:27:07;102383.59;;;15.58;81.96
28448;BME280;15675;52.870;-1.416;2023-05-17T09:29:34;102387.09;;;15.60;78.74
28448;BME280;15675;52.870;-1.416;2023-05-17T09:32:17;102384.06;;;16.14;77.74
28448;BME280;15675;52.870;-1.416;2023-05-17T09:34:44;102388.47;;;16.18;76.01
28448;BME280;15675;52.870;-1.416;2023-05-17T09:37:12;102384.91;;;16.08;74.73
28448;BME280;15675;52.870;-1.416;2023-05-17T09:39:40;102380.59;;;16.15;73.02
28448;BME280;15675;52.870;-1.416;2023-05-17T09:42:06;102380.78;;;16.49;71.36
28448;BME280;15675;52.870;-1.416;2023-05-17T09:44:45;102380.94;;;16.86;71.75
28448;BME280;15675;52.870;-1.416;2023-05-17T09:47:21;102370.47;;;16.87;68.66
28448;BME280;15675;52.870;-1.416;2023-05-17T09:49:47;102365.25;;;16.87;69.51
28448;BME280;15675;52.870;-1.416;2023-05-17T09:52:17;102373.25;;;17.28;69.29
28448;BME280;15675;52.870;-1.416;2023-05-17T09:54:50;102373.75;;;16.40;68.95
28448;BME280;15675;52.870;-1.416;2023-05-17T09:57:17;102364.25;;;16.65;67.74
28448;BME280;15675;52.870;-1.416;2023-05-17T09:59:44;102369.50;;;16.65;67.19
28448;BME280;15675;52.870;-1.416;2023-05-17T10:02:18;102365.38;;;17.32;66.87
28448;BME280;15675;52.870;-1.416;2023-05-17T10:04:46;102362.75;;;17.48;67.25
28448;BME280;15675;52.870;-1.416;2023-05-17T10:07:16;102365.66;;;16.03;68.84
28448;BME280;15675;52.870;-1.416;2023-05-17T10:09:46;102356.13;;;16.14;70.59
28448;BME280;15675;52.870;-1.416;2023-05-17T10:12:16;102357.31;;;16.80;67.60
28448;BME280;15675;52.870;-1.416;2023-05-17T10:14:42;102356.31;;;16.42;68.46
28448;BME280;15675;52.870;-1.416;2023-05-17T10:17:10;102347.69;;;16.66;68.29
28448;BME280;15675;52.870;-1.416;2023-05-17T10:19:36;102344.38;;;17.23;67.26
28448;BME280;15675;52.870;-1.416;2023-05-17T10:22:03;102343.50;;;17.75;64.68
28448;BME280;15675;52.870;-1.416;2023-05-17T10:24:30;102346.13;;;18.07;65.14
28448;BME280;15675;52.870;-1.416;2023-05-17T10:26:56;102347.91;;;17.57;64.19
28448;BME280;15675;52.870;-1.416;2023-05-17T10:29:23;102344.38;;;17.31;63.78
28448;BME280;15675;52.870;-1.416;2023-05-17T10:31:49;102350.50;;;17.43;63.93
28448;BME280;15675;52.870;-1.416;2023-05-17T10:34:18;102340.88;;;17.46;63.47
28448;BME280;15675;52.870;-1.416;2023-05-17T10:36:44;102336.50;;;17.55;62.37
28448;BME280;15675;52.870;-1.416;2023-05-17T10:39:11;102345.28;;;17.39;62.56
28448;BME280;15675;52.870;-1.416;2023-05-17T10:41:41;102337.41;;;17.93;60.24
28448;BME280;15675;52.870;-1.416;2023-05-17T10:44:12;102325.97;;;18.13;58.74
28448;BME280;15675;52.870;-1.416;2023-05-17T10:46:38;102335.66;;;17.55;57.50
28448;BME280;15675;52.870;-1.416;2023-05-17T10:49:04;102320.75;;;18.05;57.99
28448;BME280;15675;52.870;-1.416;2023-05-17T10:51:33;102330.41;;;17.70;59.12
28448;BME280;15675;52.870;-1.416;2023-05-17T10:54:03;102327.75;;;18.01;61.70
28448;BME280;15675;52.870;-1.416;2023-05-17T10:56:30;102323.38;;;18.06;58.96
28448;BME280;15675;52.870;-1.416;2023-05-17T10:59:23;102323.28;;;18.39;58.01
28448;BME280;15675;52.870;-1.416;2023-05-17T11:01:52;102324.16;;;18.36;59.53
28448;BME280;15675;52.870;-1.416;2023-05-17T11:04:25;102326.91;;;17.96;59.00
28448;BME280;15675;52.870;-1.416;2023-05-17T11:06:53;102321.59;;;18.05;58.24
28448;BME280;15675;52.870;-1.416;2023-05-17T11:09:21;102315.41;;;18.31;60.29
28448;BME280;15675;52.870;-1.416;2023-05-17T11:12:06;102324.94;;;16.68;59.47
28448;BME280;15675;52.870;-1.416;2023-05-17T11:14:51;102330.38;;;17.19;59.11
28448;BME280;15675;52.870;-1.416;2023-05-17T11:17:19;102319.88;;;17.93;59.77
28448;BME280;15675;52.870;-1.416;2023-05-17T11:19:55;102320.75;;;17.92;58.47
28448;BME280;15675;52.870;-1.416;2023-05-17T11:22:26;102326.84;;;18.08;59.16
28448;BME280;15675;52.870;-1.416;2023-05-17T11:24:55;102333.91;;;17.43;57.76
28448;BME280;15675;52.870;-1.416;2023-05-17T11:27:22;102337.38;;;17.25;56.92
28448;BME280;15675;52.870;-1.416;2023-05-17T11:29:53;102333.84;;;17.11;58.56
28448;BME280;15675;52.870;-1.416;2023-05-17T11:32:29;102333.03;;;17.50;62.00
28448;BME280;15675;52.870;-1.416;2023-05-17T11:34:58;102325.16;;;17.33;58.83
28448;BME280;15675;52.870;-1.416;2023-05-17T11:37:25;102327.75;;;17.72;59.25
28448;BME280;15675;52.870;-1.416;2023-05-17T11:40:00;102319.84;;;16.95;56.32
28448;BME280;15675;52.870;-1.416;2023-05-17T11:42:27;102313.75;;;17.70;54.97
28448;BME280;15675;52.870;-1.416;2023-05-17T11:44:56;102305.88;;;17.94;52.80
28448;BME280;15675;52.870;-1.416;2023-05-17T11:47:23;102305.72;;;18.50;54.06
28448;BME280;15675;52.870;-1.416;2023-05-17T11:49:50;102303.84;;;18.69;53.04
28448;BME280;15675;52.870;-1.416;2023-05-17T11:52:17;102307.47;;;18.45;56.71
28448;BME280;15675;52.870;-1.416;2023-05-17T11:54:44;102307.28;;;18.80;57.91
28448;BME280;15675;52.870;-1.416;2023-05-17T11:57:10;102309.00;;;18.92;55.50
28448;BME280;15675;52.870;-1.416;2023-05-17T11:59:41;102313.22;;;19.21;53.70
28448;BME280;15675;52.870;-1.416;2023-05-17T12:02:08;102317.22;;;18.12;56.00
28448;BME280;15675;52.870;-1.416;2023-05-17T12:04:36;102309.31;;;18.15;55.00
28448;BME280;15675;52.870;-1.416;2023-05-17T12:07:02;102328.63;;;17.74;56.25
28448;BME280;15675;52.870;-1.416;2023-05-17T12:09:28;102315.34;;;18.53;54.15
28448;BME280;15675;52.870;-1.416;2023-05-17T12:11:54;102305.66;;;18.56;52.77
28448;BME280;15675;52.870;-1.416;2023-05-17T12:14:21;102307.56;;;18.19;53.31
28448;BME280;15675;52.870;-1.416;2023-05-17T12:16:50;102304.84;;;18.46;53.76
28448;BME280;15675;52.870;-1.416;2023-05-17T12:19:19;102309.91;;;18.82;52.67
28448;BME280;15675;52.870;-1.416;2023-05-17T12:21:45;102299.19;;;19.18;53.21
28448;BME280;15675;52.870;-1.416;2023-05-17T12:24:12;102291.25;;;19.24;53.08
28448;BME280;15675;52.870;-1.416;2023-05-17T12:26:43;102302.91;;;18.87;54.20
28448;BME280;15675;52.870;-1.416;2023-05-17T12:29:10;102301.19;;;18.75;53.37
28448;BME280;15675;52.870;-1.416;2023-05-17T12:31:39;102303.03;;;18.56;54.15
28448;BME280;15675;52.870;-1.416;2023-05-17T12:34:06;102297.72;;;18.70;53.81
28448;BME280;15675;52.870;-1.416;2023-05-17T12:36:34;102305.31;;;19.21;52.51
28448;BME280;15675;52.870;-1.416;2023-05-17T12:39:02;102307.69;;;19.52;52.38
28448;BME280;15675;52.870;-1.416;2023-05-17T12:41:31;102306.13;;;19.33;51.85